Mackinac Island, MI (49757)

12:30 PM EDT on October 25, 2014 (GMT -0400)
KMIMACKI2 | Change Station
CLOSE
Current Station
Personal Weather Station
Location: Mackinac Island, MI
Elevation: 594 ft
Nearby Weather Stations

Elev 594 ft 45.85 °N, 84.62 °W | Updated 3 minutes ago

Scattered Clouds
Scattered Clouds
55.1 °F
Feels Like 55.1 °F
N
13.0
Wind Variable Wind from West

Today
High -- | Low -- °F
--% Chance of Precip.
Yesterday
High -- | Low -- °F
Precip. -- in
8:08 AM 6:35 PM
Waxing Crescent, 3% visible
Pressure 29.65 in
Visibility 10.0 miles
Clouds Scattered Clouds 4100 ft
Scattered Clouds 4700 ft
Dew Point 47 °F
Humidity 73%
Rainfall 0.00 in
Snow Depth Not available.
UV 3 out of 12
Pollen 1.60 out of 12
PM2.5 Good
Flu Activity Sporadic
METAR KMCD 251619Z AUTO 27020G25KT 10SM SCT041 SCT047 14/06 A2965 RMK AO2 T01360056

More Conditions Fewer Conditions

Pressure 29.65 in
Visibility 10.0 miles
Clouds Scattered Clouds 4100 ft
Scattered Clouds 4700 ft
Dew Point 47 °F
Humidity 73%
Rainfall 0.00 in
Snow Depth Not available.
UV 3 out of 12
Pollen 1.60 out of 12
PM2.5 Good
Flu Activity Sporadic
METAR KMCD 251619Z AUTO 27020G25KT 10SM SCT041 SCT047 14/06 A2965 RMK AO2 T01360056

More Conditions Fewer Conditions

Nowcast | as of 12:00 PM EDT on October 25, 2014

At 1 PM...mostly clear. Temperature 57. West winds 15 mph. At 3 PM...mostly clear. Temperature 58. West winds 17 mph with gusts to 30 mph. At 5 PM...mostly clear. Temperature 58. West winds 16 mph. At 7 PM...mostly clear. Temperature 55. West winds 15 mph.

×

10-Day Weather Forecast

Almanac

Astronomy

Oct. 25, 2014 Rise Set
Actual Time 8:08 AM EDT 6:35 PM EDT
Civil Twilight 7:38 AM EDT 7:06 PM EDT
Nautical Twilight 7:03 AM EDT 7:40 PM EDT
Astronomical Twilight 6:28 AM EDT 8:15 PM EDT
Moon 9:50 AM EDT 7:53 PM EDT
Length of Visible Light 11h 27m
Length of Day
10h 26m
Tomorrow will be 3m 1s shorter.
Waxing Crescent, 3% of the Moon is Illuminated
Today
Waxing Crescent
Oct 30
First Quarter
Nov 6
Full
Nov 14
Last Quarter
Nov 22
New

Today's Extremes

State Highs State Lows

Community

WunderPhotos

Upload Photos

1,764,899 photos uploaded!

Nearby

Air Quality

  Air Quality AQ Index Pollutant
Yesterday Good
PM2.5
Current Good
PM2.5
Saturday Good
PM2.5
Sunday Good
PM2.5
Monday Good
PM2.5

Snow Depth

Station Depth Elevation
No new snow has been reported.

Earthquake Activity

City Distance Mag. Time & Date
No recent earthquake activity has been reported nearby.
Minimum magnitude displayed is 2.5.

Coastal Water Temperatures

Place Temperature
Mackinaw City, MI 53.1 °F
Rock Cut, MI 50.0 °F
West Neebish, MI 52.0 °F
Little Rapids, MI 52.0 °F
S W Pier, MI 51.1 °F

Nearby Weather Stations